Time;durP1;ratioP1;P1;durP2;ratioP2;P2;SDS_P1;SDS_P2;PMS_P1;PMS_P2;Temp;Humidity;BMP_temperature;BMP_pressure;BME280_temperature;BME280_humidity;BME280_pressure;Samples;Min_cycle;Max_cycle;Signal;HPM_P1;HPM_P2
2022/10/31 00:00:51;;;;;;;7.10;1.73;;;;;;;11.94;100.00;100379.41;5075730;28;20028;-74
2022/10/31 00:03:17;;;;;;;11.98;2.50;;;;;;;12.00;100.00;100375.56;5068921;28;20025;-73
2022/10/31 00:05:47;;;;;;;10.70;2.22;;;;;;;11.97;100.00;100376.13;5075410;28;20053;-73
2022/10/31 00:08:14;;;;;;;12.75;2.13;;;;;;;12.00;99.70;100370.09;5086214;28;20040;-73
2022/10/31 00:10:41;;;;;;;4.18;1.15;;;;;;;12.09;99.50;100384.06;5081210;28;20119;-72
2022/10/31 00:13:07;;;;;;;6.82;1.40;;;;;;;12.10;99.18;100382.94;5071565;28;20076;-71
2022/10/31 00:15:39;;;;;;;10.20;2.13;;;;;;;12.17;99.21;100380.72;5043926;28;20025;-71
2022/10/31 00:18:06;;;;;;;10.15;1.80;;;;;;;12.20;98.60;100390.31;5069808;28;20029;-72
2022/10/31 00:20:32;;;;;;;13.45;1.73;;;;;;;12.22;98.71;100382.63;5074871;28;20021;-71
2022/10/31 00:22:59;;;;;;;12.27;1.92;;;;;;;12.26;98.10;100380.97;5076251;28;20048;-72
2022/10/31 00:25:25;;;;;;;11.23;2.13;;;;;;;12.26;98.29;100378.25;5071335;28;20033;-73
2022/10/31 00:27:50;;;;;;;11.90;2.13;;;;;;;12.21;98.43;100364.56;5069327;28;20582;-72
2022/10/31 00:30:16;;;;;;;5.18;1.13;;;;;;;12.22;98.42;100366.19;5055857;28;20025;-72
2022/10/31 00:32:41;;;;;;;13.10;1.75;;;;;;;12.26;98.40;100361.78;5076395;28;20024;-71
2022/10/31 00:35:07;;;;;;;17.00;2.30;;;;;;;12.27;98.00;100355.22;5042508;28;20036;-69
2022/10/31 00:37:32;;;;;;;12.32;1.67;;;;;;;12.30;97.96;100354.66;5089574;28;20119;-71
2022/10/31 00:39:58;;;;;;;12.30;1.88;;;;;;;12.28;97.98;100353.28;5074505;28;20047;-71
2022/10/31 00:42:24;;;;;;;12.82;1.73;;;;;;;12.27;97.76;100357.97;5071646;28;20028;-71
2022/10/31 00:44:49;;;;;;;21.27;2.72;;;;;;;12.28;97.46;100354.13;5065591;28;20036;-71
2022/10/31 00:47:15;;;;;;;9.07;1.73;;;;;;;12.23;97.97;100351.38;5076237;28;20108;-71
2022/10/31 00:49:40;;;;;;;9.55;1.80;;;;;;;12.20;97.92;100360.16;5068842;28;20037;-70
2022/10/31 00:52:06;;;;;;;9.45;1.80;;;;;;;12.19;97.89;100348.41;5073452;28;20529;-70
2022/10/31 00:54:31;;;;;;;11.63;2.22;;;;;;;12.25;97.78;100353.84;5058496;28;20025;-71
2022/10/31 00:56:57;;;;;;;7.68;1.40;;;;;;;12.24;97.80;100342.06;5086919;28;20025;-74
2022/10/31 00:59:23;;;;;;;16.00;2.80;;;;;;;12.28;97.54;100348.63;5061744;28;20089;-74
2022/10/31 01:01:48;;;;;;;7.18;1.50;;;;;;;12.30;96.89;100346.44;5064392;28;20032;-73
2022/10/31 01:04:14;;;;;;;14.10;1.88;;;;;;;12.33;97.28;100356.84;5072053;28;20120;-75
2022/10/31 01:06:40;;;;;;;13.80;2.03;;;;;;;12.32;97.01;100355.19;5069741;28;20060;-76
2022/10/31 01:09:05;;;;;;;13.57;1.42;;;;;;;12.39;97.57;100352.97;5057880;28;20056;-74
2022/10/31 01:11:31;;;;;;;17.17;2.13;;;;;;;12.39;96.87;100347.47;5071474;28;20043;-75
2022/10/31 01:13:56;;;;;;;4.30;1.05;;;;;;;12.36;96.84;100339.00;5062069;28;20478;-74
2022/10/31 01:16:42;;;;;;;11.25;2.17;;;;;;;12.44;96.59;100343.09;5068433;28;20028;-73
2022/10/31 01:19:08;;;;;;;12.63;1.58;;;;;;;12.43;96.26;100344.19;5076401;28;20029;-75
2022/10/31 01:21:33;;;;;;;18.58;1.90;;;;;;;12.36;96.62;100326.09;5068612;28;20024;-74
2022/10/31 01:24:01;;;;;;;8.80;1.40;;;;;;;12.43;96.41;100347.75;5069256;28;20130;-73
2022/10/31 01:26:30;;;;;;;12.20;1.67;;;;;;;12.39;96.66;100344.75;5080607;28;20024;-74
2022/10/31 01:29:07;;;;;;;10.45;1.40;;;;;;;12.44;96.82;100351.31;5076035;28;20052;-74
2022/10/31 01:31:37;;;;;;;12.70;1.50;;;;;;;12.42;96.48;100348.03;5074349;28;20058;-74
2022/10/31 01:34:03;;;;;;;14.90;1.27;;;;;;;12.46;96.33;100347.19;5075425;28;20040;-73
2022/10/31 01:36:31;;;;;;;7.63;1.38;;;;;;;12.47;96.49;100356.22;5071758;28;20033;-75
2022/10/31 01:39:01;;;;;;;13.32;1.75;;;;;;;12.48;96.21;100341.44;5072200;28;20009;-75
2022/10/31 01:41:29;;;;;;;8.00;1.90;;;;;;;12.47;96.67;100356.22;5072955;28;20025;-72
2022/10/31 01:43:57;;;;;;;4.65;1.13;;;;;;;12.50;96.55;100361.16;5081421;28;20093;-73
2022/10/31 01:46:50;;;;;;;5.82;1.10;;;;;;;12.46;96.67;100360.09;5081810;28;20024;-73
2022/10/31 01:49:28;;;;;;;15.43;2.05;;;;;;;12.38;97.08;100348.59;5084385;28;20056;-73
2022/10/31 01:52:00;;;;;;;13.27;2.05;;;;;;;12.41;96.65;100352.69;5074700;28;20020;-72
2022/10/31 01:54:32;;;;;;;14.57;1.40;;;;;;;12.31;96.88;100337.09;5069136;28;20004;-75
2022/10/31 01:56:58;;;;;;;6.78;1.10;;;;;;;12.33;97.10;100347.78;5079304;28;20044;-77
2022/10/31 01:59:28;;;;;;;2.53;1.33;;;;;;;12.24;97.34;100342.06;5077854;28;20042;-72
2022/10/31 02:01:53;;;;;;;8.10;1.65;;;;;;;12.19;97.41;100344.81;5076128;28;20029;-73
2022/10/31 02:04:21;;;;;;;15.27;1.92;;;;;;;12.16;97.66;100337.16;5038551;28;20395;-73
2022/10/31 02:07:02;;;;;;;11.15;1.85;;;;;;;12.11;98.20;100342.66;5070575;28;20040;-72
2022/10/31 02:09:30;;;;;;;13.25;1.85;;;;;;;12.07;98.84;100333.34;5068659;28;20028;-73
2022/10/31 02:11:59;;;;;;;11.82;1.52;;;;;;;11.98;98.62;100339.38;5079052;28;20017;-73
2022/10/31 02:14:27;;;;;;;9.25;2.03;;;;;;;11.93;99.42;100336.69;5081908;28;20025;-72
2022/10/31 02:16:54;;;;;;;9.52;1.75;;;;;;;11.88;99.67;100334.75;5071621;28;20029;-73
2022/10/31 02:19:38;;;;;;;5.95;1.45;;;;;;;11.87;99.63;100337.72;5083194;28;20020;-73
2022/10/31 02:22:23;;;;;;;15.82;1.42;;;;;;;11.86;100.00;100336.09;5068827;28;20037;-74
2022/10/31 02:24:54;;;;;;;9.10;1.80;;;;;;;11.83;100.00;100336.66;5082112;28;20024;-74
2022/10/31 02:27:40;;;;;;;10.90;1.73;;;;;;;11.72;100.00;100335.03;5072673;28;20077;-74
2022/10/31 02:30:11;;;;;;;17.27;2.35;;;;;;;11.80;100.00;100345.44;5082554;28;20028;-74
2022/10/31 02:32:48;;;;;;;14.52;1.90;;;;;;;11.78;100.00;100344.88;5080757;28;20020;-75
2022/10/31 02:35:26;;;;;;;12.48;2.30;;;;;;;11.76;100.00;100345.16;5086335;28;20012;-71
2022/10/31 02:38:20;;;;;;;12.68;1.95;;;;;;;11.73;100.00;100347.63;5076548;28;20091;-75
2022/10/31 02:40:59;;;;;;;7.85;1.48;;;;;;;11.77;100.00;100345.97;5079515;28;20501;-75
2022/10/31 02:43:39;;;;;;;11.93;1.70;;;;;;;11.74;100.00;100339.13;5079284;28;20037;-75
2022/10/31 02:46:16;;;;;;;10.98;1.38;;;;;;;11.69;100.00;100328.97;5080636;28;20055;-74
2022/10/31 02:48:44;;;;;;;9.25;1.70;;;;;;;11.76;100.00;100345.16;5069458;28;20120;-73
2022/10/31 02:51:11;;;;;;;15.88;1.67;;;;;;;11.79;100.00;100341.03;5063883;28;20025;-75
2022/10/31 02:53:37;;;;;;;7.95;1.65;;;;;;;11.80;100.00;100334.47;5062015;28;20009;-74
2022/10/31 02:56:12;;;;;;;18.00;2.08;;;;;;;11.84;100.00;100341.88;5075902;28;20490;-74
2022/10/31 02:58:49;;;;;;;13.40;1.90;;;;;;;11.81;100.00;100333.34;5077788;28;20541;-74
2022/10/31 03:01:36;;;;;;;10.32;1.92;;;;;;;11.84;100.00;100332.81;5073130;28;20024;-74
2022/10/31 03:04:29;;;;;;;7.03;1.40;;;;;;;11.86;100.00;100330.63;5082743;28;20054;-71
2022/10/31 03:07:27;;;;;;;12.90;1.52;;;;;;;11.98;100.00;100322.94;5074349;28;20021;-74
2022/10/31 03:10:16;;;;;;;20.48;2.28;;;;;;;12.20;100.00;100319.03;5078873;28;20036;-74
2022/10/31 03:13:08;;;;;;;16.70;1.58;;;;;;;12.34;100.00;100303.66;5072578;28;20043;-74
2022/10/31 03:15:39;;;;;;;15.43;2.25;;;;;;;12.45;100.00;100303.59;5071358;28;20115;-73
2022/10/31 03:18:11;;;;;;;14.73;2.30;;;;;;;12.49;100.00;100289.03;5079985;28;20028;-74
2022/10/31 03:20:58;;;;;;;10.35;1.98;;;;;;;12.48;100.00;100292.06;5088375;28;20032;-75
2022/10/31 03:23:25;;;;;;;12.07;1.85;;;;;;;12.43;100.00;100287.44;5066075;28;20039;-74
2022/10/31 03:25:54;;;;;;;17.55;2.33;;;;;;;12.44;100.00;100290.97;5074989;28;20115;-72
2022/10/31 03:28:31;;;;;;;12.88;1.60;;;;;;;12.53;100.00;100290.13;5077060;28;20020;-75
2022/10/31 03:31:00;;;;;;;6.38;0.98;;;;;;;12.56;100.00;100277.75;5074513;28;20055;-75
2022/10/31 03:33:31;;;;;;;6.93;2.05;;;;;;;12.62;100.00;100289.53;5077699;28;20084;-73
2022/10/31 03:36:00;;;;;;;6.28;1.42;;;;;;;12.64;99.53;100282.63;5078079;28;20051;-74
2022/10/31 03:38:28;;;;;;;9.60;1.77;;;;;;;12.69;99.55;100288.09;5073223;28;20021;-74
2022/10/31 03:40:55;;;;;;;8.07;1.35;;;;;;;12.66;99.28;100274.97;5099196;28;20125;-72
2022/10/31 03:43:26;;;;;;;10.98;1.38;;;;;;;12.78;99.14;100287.53;5085033;28;20042;-72
2022/10/31 03:45:52;;;;;;;16.63;2.20;;;;;;;12.70;98.71;100289.75;5088569;28;20024;-72
2022/10/31 03:48:20;;;;;;;10.88;1.75;;;;;;;12.65;99.12;100281.53;5071996;28;20024;-73
2022/10/31 03:51:21;;;;;;;13.65;1.88;;;;;;;12.72;99.15;100293.03;5077331;28;20024;-74
2022/10/31 03:54:07;;;;;;;10.25;1.67;;;;;;;12.72;99.19;100282.06;5020734;28;20106;-73
2022/10/31 03:56:48;;;;;;;15.70;2.05;;;;;;;12.71;99.09;100285.88;5076128;28;20053;-73
2022/10/31 03:59:22;;;;;;;12.45;1.30;;;;;;;12.65;99.24;100284.28;5076344;28;20073;-73
2022/10/31 04:01:57;;;;;;;14.70;2.00;;;;;;;12.66;98.76;100283.19;5082183;28;20125;-74
2022/10/31 04:04:23;;;;;;;16.73;2.42;;;;;;;12.61;99.30;100276.91;5075044;28;20054;-71
2022/10/31 04:06:52;;;;;;;11.77;1.70;;;;;;;12.59;99.65;100279.94;5059428;28;20025;-72
2022/10/31 04:09:19;;;;;;;11.82;1.83;;;;;;;12.52;99.53;100291.22;5066159;28;20044;-71
2022/10/31 04:11:53;;;;;;;10.93;1.52;;;;;;;12.49;100.00;100277.25;5059023;28;20037;-71
2022/10/31 04:14:18;;;;;;;11.82;1.60;;;;;;;12.54;100.00;100275.31;5082385;28;20145;-73
2022/10/31 04:16:44;;;;;;;12.75;1.92;;;;;;;12.52;99.76;100268.47;5074047;28;20048;-72
2022/10/31 04:19:11;;;;;;;19.15;2.17;;;;;;;12.46;100.00;100275.09;5090146;28;20067;-71
2022/10/31 04:21:36;;;;;;;15.57;2.08;;;;;;;12.37;100.00;100266.63;5080230;28;20084;-73
2022/10/31 04:24:02;;;;;;;6.95;1.42;;;;;;;12.29;100.00;100267.19;5065084;28;20165;-72
2022/10/31 04:26:27;;;;;;;5.88;1.00;;;;;;;12.27;100.00;100266.66;5070653;28;20054;-71
2022/10/31 04:28:52;;;;;;;15.18;1.83;;;;;;;12.23;100.00;100263.66;5071830;28;20037;-73
2022/10/31 04:31:18;;;;;;;13.65;1.38;;;;;;;12.22;100.00;100264.75;5070584;28;20025;-72
2022/10/31 04:33:43;;;;;;;9.75;2.03;;;;;;;12.15;100.00;100269.72;5079176;28;20104;-73
2022/10/31 04:36:09;;;;;;;7.60;1.63;;;;;;;12.05;100.00;100262.38;5078954;28;20029;-72
2022/10/31 04:38:34;;;;;;;10.15;1.50;;;;;;;12.00;100.00;100265.94;5069859;28;20093;-73
2022/10/31 04:41:00;;;;;;;7.68;1.10;;;;;;;11.97;100.00;100263.78;5060812;28;20075;-73
2022/10/31 04:43:25;;;;;;;6.40;1.85;;;;;;;11.91;100.00;100267.56;5075524;28;20116;-71
2022/10/31 04:45:51;;;;;;;6.97;1.40;;;;;;;11.94;100.00;100261.56;5063741;28;20175;-73
2022/10/31 04:48:17;;;;;;;8.40;1.38;;;;;;;11.90;100.00;100260.47;5062998;28;20021;-73
2022/10/31 04:50:42;;;;;;;8.68;1.35;;;;;;;11.88;100.00;100257.19;5079958;28;20047;-73
2022/10/31 04:53:08;;;;;;;9.05;1.55;;;;;;;11.78;100.00;100263.50;5076296;28;20032;-71
2022/10/31 04:55:35;;;;;;;9.35;1.15;;;;;;;11.77;100.00;100261.88;5074770;28;20043;-73
2022/10/31 04:58:00;;;;;;;10.63;1.30;;;;;;;11.80;100.00;100257.78;5066476;28;20045;-71
2022/10/31 05:00:26;;;;;;;6.55;1.30;;;;;;;11.76;100.00;100254.75;5057643;28;20482;-73
2022/10/31 05:02:54;;;;;;;9.85;1.80;;;;;;;11.72;100.00;100250.09;5046696;28;20043;-73
2022/10/31 05:05:22;;;;;;;9.63;1.58;;;;;;;11.72;100.00;100258.31;5072873;28;20071;-73
2022/10/31 05:07:49;;;;;;;11.40;1.80;;;;;;;11.67;100.00;100246.28;5101227;28;20031;-73
2022/10/31 05:10:20;;;;;;;6.75;1.77;;;;;;;11.67;100.00;100246.28;5083862;28;20039;-72
2022/10/31 05:12:51;;;;;;;12.00;2.20;;;;;;;11.65;100.00;100245.75;5089631;28;20097;-73
2022/10/31 05:15:18;;;;;;;9.00;1.65;;;;;;;11.69;100.00;100249.53;5085060;28;20021;-74
2022/10/31 05:17:44;;;;;;;7.18;1.42;;;;;;;11.71;100.00;100238.34;5083234;28;20066;-73
2022/10/31 05:20:14;;;;;;;17.38;2.15;;;;;;;11.73;100.00;100238.88;5083215;28;20474;-74
2022/10/31 05:22:47;;;;;;;13.52;2.22;;;;;;;11.78;100.00;100243.50;5096538;28;20067;-72
2022/10/31 05:25:13;;;;;;;9.20;1.52;;;;;;;11.80;100.00;100249.56;5080447;28;20039;-72
2022/10/31 05:27:44;;;;;;;9.63;1.63;;;;;;;11.77;100.00;100250.09;5083652;28;20036;-72
2022/10/31 05:30:12;;;;;;;10.75;1.75;;;;;;;11.72;100.00;100241.88;5083587;28;20029;-73
2022/10/31 05:32:39;;;;;;;8.30;1.73;;;;;;;11.70;100.00;100251.19;5082984;28;20028;-73
2022/10/31 05:35:07;;;;;;;12.93;1.65;;;;;;;11.75;100.00;100244.06;5077199;28;20497;-73
2022/10/31 05:37:33;;;;;;;17.05;1.95;;;;;;;11.75;100.00;100241.34;5076485;28;20037;-74
2022/10/31 05:39:58;;;;;;;10.80;1.80;;;;;;;11.77;100.00;100244.59;5057589;28;20031;-74
2022/10/31 05:42:23;;;;;;;10.73;1.50;;;;;;;11.73;100.00;100246.28;5062920;28;20041;-74
2022/10/31 05:44:49;;;;;;;13.82;1.98;;;;;;;11.69;100.00;100233.13;5047455;28;20123;-72
2022/10/31 05:47:14;;;;;;;6.20;1.00;;;;;;;11.63;100.00;100234.22;5075786;28;20028;-74
2022/10/31 05:49:40;;;;;;;4.35;1.25;;;;;;;11.61;100.00;100232.88;5063756;28;20056;-73
2022/10/31 05:52:05;;;;;;;5.43;1.20;;;;;;;11.58;100.00;100230.69;5073901;28;20028;-73
2022/10/31 05:54:30;;;;;;;7.30;0.90;;;;;;;11.49;100.00;100230.44;5070325;28;20037;-73
2022/10/31 05:56:56;;;;;;;6.57;1.50;;;;;;;11.42;100.00;100221.69;5063677;28;20113;-72
2022/10/31 05:59:21;;;;;;;6.18;1.42;;;;;;;11.38;100.00;100220.63;5079825;28;20119;-74
2022/10/31 06:01:47;;;;;;;6.15;1.52;;;;;;;11.34;100.00;100218.41;5092556;28;20764;-73
2022/10/31 06:04:12;;;;;;;6.05;1.20;;;;;;;11.38;100.00;100217.88;5067521;28;20127;-73
2022/10/31 06:06:37;;;;;;;11.50;1.10;;;;;;;11.41;100.00;100220.88;5054082;28;20036;-74
2022/10/31 06:09:03;;;;;;;6.10;1.23;;;;;;;11.46;100.00;100217.28;5066821;28;20066;-73
2022/10/31 06:11:28;;;;;;;5.38;1.20;;;;;;;11.48;100.00;100215.13;5065278;28;20031;-74
2022/10/31 06:13:54;;;;;;;7.47;1.23;;;;;;;11.47;100.00;100213.47;5081411;28;20035;-74
2022/10/31 06:16:19;;;;;;;11.30;1.63;;;;;;;11.45;100.00;100199.25;5069695;28;20493;-72
2022/10/31 06:18:46;;;;;;;5.35;1.80;;;;;;;11.44;100.00;100205.81;5082495;28;20414;-73
2022/10/31 06:21:11;;;;;;;12.43;1.80;;;;;;;11.49;100.00;100206.63;5068211;28;20033;-74
2022/10/31 06:23:36;;;;;;;9.20;1.75;;;;;;;11.47;100.00;100208.00;5082406;28;20496;-73
2022/10/31 06:26:02;;;;;;;6.53;1.30;;;;;;;11.48;100.00;100193.22;5075349;28;20028;-74
2022/10/31 06:28:27;;;;;;;4.70;0.80;;;;;;;11.37;100.00;100197.88;5059030;28;20462;-73
2022/10/31 06:30:53;;;;;;;3.05;1.17;;;;;;;11.37;100.00;100191.59;5065017;28;20158;-74
2022/10/31 06:33:18;;;;;;;15.45;2.58;;;;;;;11.45;100.00;100199.25;5065110;28;20094;-74
2022/10/31 06:35:47;;;;;;;16.27;2.22;;;;;;;11.49;100.00;100187.44;5083094;28;20024;-74
2022/10/31 06:38:13;;;;;;;9.75;1.40;;;;;;;11.59;100.00;100194.81;5078398;28;20052;-73
2022/10/31 06:40:38;;;;;;;10.07;1.70;;;;;;;11.72;100.00;100192.59;5049872;28;20025;-74
2022/10/31 06:43:04;;;;;;;13.07;1.58;;;;;;;11.83;100.00;100188.72;5093009;28;20077;-74
2022/10/31 06:45:29;;;;;;;10.95;1.52;;;;;;;11.84;100.00;100190.34;5081146;28;20426;-72
2022/10/31 06:47:56;;;;;;;4.60;1.30;;;;;;;11.80;100.00;100184.59;5068088;28;20067;-74
2022/10/31 06:50:22;;;;;;;7.47;1.15;;;;;;;11.74;100.00;100184.91;5082045;28;20039;-73
2022/10/31 06:52:56;;;;;;;8.00;1.38;;;;;;;11.70;100.00;100190.13;5064285;28;20107;-73
2022/10/31 06:55:24;;;;;;;5.60;1.30;;;;;;;11.63;100.00;100184.94;5085736;28;20052;-74
2022/10/31 06:57:53;;;;;;;14.60;2.20;;;;;;;11.59;100.00;100183.03;5059144;28;20426;-74
2022/10/31 07:00:19;;;;;;;7.47;2.08;;;;;;;11.60;100.00;100179.22;5070222;28;20025;-73
2022/10/31 07:02:59;;;;;;;5.22;1.27;;;;;;;11.63;100.00;100184.94;5068850;28;20058;-74
2022/10/31 07:05:26;;;;;;;9.77;1.85;;;;;;;11.60;100.00;100180.00;5070099;28;20044;-73
2022/10/31 07:07:56;;;;;;;5.28;1.10;;;;;;;11.57;100.00;100179.78;5064671;28;20040;-74
2022/10/31 07:10:23;;;;;;;6.30;1.23;;;;;;;11.59;100.00;100186.59;5071395;28;20043;-73
2022/10/31 07:12:53;;;;;;;15.15;1.80;;;;;;;11.56;100.00;100181.66;5065200;28;20119;-74
2022/10/31 07:15:18;;;;;;;7.47;2.03;;;;;;;11.57;100.00;100180.56;5069791;28;20149;-73
2022/10/31 07:17:44;;;;;;;10.68;1.90;;;;;;;11.59;100.00;100189.31;5056558;28;20088;-75
2022/10/31 07:20:09;;;;;;;6.72;1.15;;;;;;;11.68;100.00;100193.16;5075538;28;20094;-72
2022/10/31 07:22:36;;;;;;;11.15;1.70;;;;;;;11.82;100.00;100198.03;5058954;28;20029;-73
2022/10/31 07:25:02;;;;;;;9.05;1.70;;;;;;;11.95;100.00;100185.69;5071632;28;20483;-73
2022/10/31 07:27:27;;;;;;;4.13;1.02;;;;;;;12.17;100.00;100204.47;5074302;28;20050;-75
2022/10/31 07:29:53;;;;;;;4.18;1.00;;;;;;;12.32;100.00;100196.16;5071238;28;20021;-73
2022/10/31 07:32:18;;;;;;;4.65;1.00;;;;;;;12.48;100.00;100194.13;5070287;28;20096;-75
2022/10/31 07:34:44;;;;;;;7.38;1.20;;;;;;;12.57;100.00;100191.59;5058995;28;20036;-77
2022/10/31 07:37:09;;;;;;;3.92;0.85;;;;;;;12.67;100.00;100180.56;5061975;28;20089;-72
2022/10/31 07:39:34;;;;;;;2.50;0.80;;;;;;;12.89;100.00;100198.50;5066967;28;20115;-74
2022/10/31 07:42:00;;;;;;;9.35;1.40;;;;;;;12.93;100.00;100199.56;5061175;28;20490;-72
2022/10/31 07:44:25;;;;;;;4.18;1.05;;;;;;;12.90;100.00;100192.72;5058455;28;20696;-73
2022/10/31 07:46:51;;;;;;;10.85;1.75;;;;;;;12.87;100.00;100195.25;5070600;28;20029;-73
2022/10/31 07:49:16;;;;;;;5.25;1.10;;;;;;;12.87;100.00;100193.31;5061734;28;20033;-73
2022/10/31 07:51:42;;;;;;;11.35;1.80;;;;;;;12.83;100.00;100189.50;5052742;28;20089;-73
2022/10/31 07:54:07;;;;;;;7.95;1.55;;;;;;;12.87;100.00;100189.75;5075135;28;20439;-74
2022/10/31 07:56:32;;;;;;;7.18;1.33;;;;;;;12.91;100.00;100180.66;5076249;28;20045;-73
2022/10/31 07:58:58;;;;;;;6.75;1.70;;;;;;;13.04;100.00;100189.31;5069492;28;20028;-73
2022/10/31 08:01:24;;;;;;;14.68;2.65;;;;;;;13.32;100.00;100186.88;5067445;28;20033;-73
2022/10/31 08:03:50;;;;;;;7.63;1.40;;;;;;;13.49;100.00;100183.69;5068129;28;20051;-75
2022/10/31 08:06:15;;;;;;;10.73;1.88;;;;;;;13.59;100.00;100183.59;5073675;28;20035;-75
2022/10/31 08:08:40;;;;;;;14.32;2.88;;;;;;;13.69;99.54;100183.47;5051266;28;20023;-75
2022/10/31 08:11:06;;;;;;;7.40;1.92;;;;;;;13.79;98.45;100188.84;5055902;28;20052;-74
2022/10/31 08:13:31;;;;;;;11.45;1.50;;;;;;;13.94;97.72;100189.78;5074448;28;20105;-72
2022/10/31 08:16:03;;;;;;;7.15;1.50;;;;;;;14.33;97.71;100174.94;5070624;28;20025;-74
2022/10/31 08:18:29;;;;;;;8.38;1.60;;;;;;;15.57;95.05;100181.16;5080617;28;20039;-72
2022/10/31 08:20:54;;;;;;;8.32;1.90;;;;;;;16.70;86.84;100175.97;5074668;28;20104;-73
2022/10/31 08:23:22;;;;;;;12.07;1.35;;;;;;;17.08;82.81;100176.44;5080519;28;20012;-72
2022/10/31 08:25:47;;;;;;;9.52;1.58;;;;;;;17.28;80.86;100168.72;5068576;28;20029;-73
2022/10/31 08:28:16;;;;;;;13.75;1.60;;;;;;;17.71;78.90;100175.56;5075242;28;20024;-73
2022/10/31 08:30:42;;;;;;;7.50;2.08;;;;;;;18.59;75.23;100174.59;5086403;28;20078;-73
2022/10/31 08:33:13;;;;;;;5.15;1.10;;;;;;;19.50;71.41;100165.47;5080582;28;20028;-72
2022/10/31 08:35:39;;;;;;;14.10;1.90;;;;;;;19.73;68.36;100177.13;5086195;28;20025;-73
2022/10/31 08:38:06;;;;;;;14.15;1.73;;;;;;;19.59;69.26;100171.78;5073183;28;20032;-73
2022/10/31 08:40:33;;;;;;;14.60;1.67;;;;;;;19.83;67.93;100174.00;5091082;28;20032;-73
2022/10/31 08:43:08;;;;;;;14.77;1.90;;;;;;;20.38;65.11;100165.78;5088643;28;20037;-70
2022/10/31 08:45:34;;;;;;;9.48;1.45;;;;;;;21.12;62.02;100166.13;5091770;28;20080;-72
2022/10/31 08:48:01;;;;;;;9.80;1.77;;;;;;;21.59;59.46;100159.38;5088712;28;20082;-72
2022/10/31 08:50:28;;;;;;;15.68;2.55;;;;;;;21.64;59.11;100159.16;5079047;28;20035;-71
2022/10/31 08:52:59;;;;;;;10.52;1.42;;;;;;;21.46;59.12;100158.50;5106319;28;20023;-71
2022/10/31 08:55:27;;;;;;;8.98;1.70;;;;;;;21.06;59.98;100151.63;5092363;28;20075;-73
2022/10/31 08:57:57;;;;;;;10.05;1.75;;;;;;;21.76;58.73;100161.91;5093710;28;20048;-72
2022/10/31 09:00:23;;;;;;;10.85;1.65;;;;;;;21.84;57.61;100151.03;5095148;28;20039;-72
2022/10/31 09:02:55;;;;;;;5.22;1.58;;;;;;;21.65;58.27;100160.75;5093447;28;20032;-70
2022/10/31 09:05:20;;;;;;;6.65;1.67;;;;;;;21.66;57.78;100156.81;5089033;28;20058;-70
2022/10/31 09:07:45;;;;;;;12.40;3.10;;;;;;;21.44;57.99;100155.28;5089834;28;20035;-70
2022/10/31 09:10:11;;;;;;;5.00;1.55;;;;;;;20.83;59.35;100153.19;5093525;28;20034;-71
2022/10/31 09:12:36;;;;;;;14.00;1.48;;;;;;;20.71;59.94;100151.97;5090778;28;20029;-71
2022/10/31 09:15:02;;;;;;;8.00;1.50;;;;;;;20.50;60.23;100143.66;5093102;28;20015;-70
2022/10/31 09:17:28;;;;;;;9.23;1.60;;;;;;;20.32;61.85;100140.19;5072829;28;20054;-70
2022/10/31 09:19:54;;;;;;;8.10;1.92;;;;;;;20.26;61.12;100129.63;5084714;28;20052;-69
2022/10/31 09:22:19;;;;;;;9.38;1.55;;;;;;;19.64;62.34;100124.47;5072082;28;20532;-71
2022/10/31 09:24:45;;;;;;;5.97;1.48;;;;;;;18.80;64.67;100132.38;5088164;28;20048;-71
2022/10/31 09:27:17;;;;;;;8.95;1.63;;;;;;;18.00;66.83;100116.94;5085338;28;20028;-72
2022/10/31 09:29:51;;;;;;;12.93;2.10;;;;;;;17.71;68.37;100109.19;5050435;28;20170;-72
2022/10/31 09:32:17;;;;;;;6.85;1.58;;;;;;;18.20;68.55;100112.72;5088341;28;20408;-72
2022/10/31 09:34:42;;;;;;;8.43;1.83;;;;;;;18.85;66.36;100104.50;5086238;28;20500;-72
2022/10/31 09:37:08;;;;;;;5.25;1.17;;;;;;;19.25;64.24;100107.03;5092284;28;20027;-72
2022/10/31 09:39:33;;;;;;;4.13;1.00;;;;;;;18.77;64.16;100095.06;5070432;28;20025;-70
2022/10/31 09:42:06;;;;;;;13.23;1.67;;;;;;;18.43;65.86;100085.69;5088883;28;20024;-70
2022/10/31 09:44:50;;;;;;;8.85;2.15;;;;;;;18.33;66.74;100090.75;5088801;28;20061;-71
2022/10/31 09:47:45;;;;;;;5.22;1.48;;;;;;;18.16;66.81;100080.50;5089518;28;20028;-70
2022/10/31 09:50:26;;;;;;;10.13;1.63;;;;;;;17.83;67.69;100078.97;5084493;28;20558;-70
2022/10/31 09:53:02;;;;;;;12.63;1.65;;;;;;;17.73;68.36;100079.28;5074458;28;20532;-71
2022/10/31 09:55:37;;;;;;;7.13;1.30;;;;;;;17.87;68.40;100068.91;5090082;28;20153;-70
2022/10/31 09:58:04;;;;;;;8.13;1.52;;;;;;;18.97;65.63;100065.88;5086670;28;20086;-70
2022/10/31 10:00:31;;;;;;;6.97;1.02;;;;;;;19.41;62.84;100074.00;5071579;28;20440;-70
2022/10/31 10:03:27;;;;;;;6.65;1.17;;;;;;;19.94;61.92;100057.88;5069314;28;20031;-69
2022/10/31 10:06:17;;;;;;;12.05;1.52;;;;;;;20.18;60.42;100059.13;5090523;28;20385;-71
2022/10/31 10:08:43;;;;;;;5.10;0.98;;;;;;;20.36;59.98;100052.28;5083073;28;20020;-71
2022/10/31 10:11:30;;;;;;;8.43;1.30;;;;;;;20.48;58.58;100050.72;5086700;28;20158;-71
2022/10/31 10:14:16;;;;;;;12.13;1.55;;;;;;;20.10;59.09;100046.97;5072439;28;20038;-70
2022/10/31 10:16:42;;;;;;;7.47;1.55;;;;;;;20.38;58.75;100050.00;5086642;28;20032;-70
2022/10/31 10:19:16;;;;;;;8.20;1.67;;;;;;;20.72;57.73;100034.13;5090784;28;20054;-69
2022/10/31 10:21:57;;;;;;;4.28;0.90;;;;;;;20.21;58.29;100030.72;5092587;28;20039;-68
2022/10/31 10:24:41;;;;;;;5.05;1.58;;;;;;;20.42;59.42;100033.44;5093089;28;20428;-70
2022/10/31 10:27:46;;;;;;;3.38;1.13;;;;;;;22.74;56.51;100034.69;5091865;28;20166;-72
2022/10/31 10:30:21;;;;;;;8.10;1.95;;;;;;;25.01;46.77;100036.81;5109791;28;20043;-70
2022/10/31 10:32:51;;;;;;;8.20;2.10;;;;;;;25.25;45.96;100038.41;5096356;28;20023;-71
2022/10/31 10:35:50;;;;;;;4.97;1.08;;;;;;;25.89;44.11;100043.38;5096499;28;20665;-70
2022/10/31 10:38:56;;;;;;;7.60;1.15;;;;;;;25.08;43.23;100048.13;5090861;28;20024;-70
2022/10/31 10:41:27;;;;;;;9.35;0.90;;;;;;;23.69;47.19;100033.81;5093061;28;20032;-70
2022/10/31 10:43:55;;;;;;;2.65;0.70;;;;;;;22.99;49.28;100015.00;5095615;28;20024;-71
2022/10/31 10:49:54;;;;;;;6.63;1.20;;;;;;;23.53;48.15;100044.22;5092692;28;20119;-70
2022/10/31 10:52:46;;;;;;;6.60;1.00;;;;;;;23.82;46.16;100014.16;5085374;28;20131;-72
2022/10/31 10:55:26;;;;;;;3.47;0.90;;;;;;;22.79;47.01;100014.94;5091254;28;20052;-71
2022/10/31 10:57:58;;;;;;;1.45;0.50;;;;;;;21.72;49.71;100004.38;5094729;28;20024;-70
2022/10/31 11:00:34;;;;;;;5.72;0.93;;;;;;;21.34;51.58;100005.56;5094045;28;20422;-70
2022/10/31 11:03:00;;;;;;;3.55;0.77;;;;;;;21.17;51.91;100003.81;5093925;28;20111;-70
2022/10/31 11:05:58;;;;;;;2.20;0.70;;;;;;;24.63;47.86;100015.38;5078474;28;20097;-69
2022/10/31 11:08:28;;;;;;;5.55;1.17;;;;;;;26.93;40.33;100007.31;5080806;28;20036;-70
2022/10/31 11:11:06;;;;;;;4.28;0.93;;;;;;;24.53;43.08;100000.00;5091696;28;20043;-69
2022/10/31 11:13:34;;;;;;;7.05;1.00;;;;;;;23.12;46.53;99997.03;5098868;28;20099;-71
2022/10/31 11:16:07;;;;;;;4.90;0.98;;;;;;;22.89;46.82;99996.03;5092322;28;20024;-70
2022/10/31 11:18:37;;;;;;;4.47;1.00;;;;;;;21.74;49.10;99986.16;5095422;28;20035;-70
2022/10/31 11:21:04;;;;;;;8.65;1.58;;;;;;;21.35;51.85;99999.66;5091424;28;20081;-69
2022/10/31 11:23:30;;;;;;;3.65;1.10;;;;;;;23.26;46.81;99984.59;5094985;28;20099;-70
2022/10/31 11:26:01;;;;;;;3.42;0.90;;;;;;;24.14;45.94;99978.53;5091833;28;20111;-70
2022/10/31 11:28:35;;;;;;;8.15;1.85;;;;;;;26.79;38.87;99967.91;5094848;28;20478;-69
2022/10/31 11:31:07;;;;;;;12.83;1.50;;;;;;;28.15;36.31;99961.47;5090108;28;20560;-70
2022/10/31 11:33:39;;;;;;;3.53;1.10;;;;;;;28.57;35.65;99948.72;5097924;28;20023;-70
2022/10/31 11:36:38;;;;;;;2.78;0.98;;;;;;;26.37;37.19;99950.28;5093679;28;20020;-70